Denizhan Trio — 3FEN7 — position and weather

sailwx.info

Track history (hours):
 
Tides and Currents Weather Stations Pressure Air Temp Water Temp Dewpoint Dewpoint Depression Visibility Wind Speed Wind Dir Waves Ship Positions

Denizhan Trio

Last reported at 2017-Nov-10 17:40 UTC. Time now 2017-Nov-24 03:50 UTC.
Position N 27°51' W 015°20'.
Warning: this ship's position is 13 days out of date.

Length 81 m; draft 4.3 m.

Type: Ship. MMSI: 372261000.

Date/timePositionNaut miles runAvg speedWind from/ knotsBaromVisibWave heightAir tempDewpointWater temp
2017-Nov-10 17:40N 27°51' W 015°20'1 7.1
2017-Nov-10 17:29N 27°52' W 015°20'3 7.4
2017-Nov-10 17:00N 27°56' W 015°19'3 6.8
2017-Nov-10 16:31N 27°59' W 015°20'3 6.9
2017-Nov-10 16:00N 28°02' W 015°21'3 6.8
2017-Nov-10 15:30N 28°06' W 015°22'2 4.5
2017-Nov-10 15:01N 28°07' W 015°23'2 3.8
2017-Nov-10 14:31N 28°09' W 015°25'0 0.0
2017-Nov-10 13:57N 28°09' W 015°25'0 0.0
2017-Nov-10 13:15N 28°09' W 015°25'0 0.0
2017-Nov-10 13:00N 28°09' W 015°25'0 0.0
2017-Nov-10 12:30N 28°09' W 015°25'0 0.0
2017-Nov-10 12:00N 28°09' W 015°25'0 0.0
2017-Nov-10 11:30N 28°09' W 015°25'0 0.0
2017-Nov-10 11:00N 28°09' W 015°25'0 0.0
2017-Nov-10 10:15N 28°09' W 015°25'0 0.0
2017-Nov-10 10:00N 28°09' W 015°25'0 0.0
2017-Nov-10 09:30N 28°09' W 015°25'0 0.0
2017-Nov-10 09:00N 28°09' W 015°25'0 0.0
2017-Nov-10 08:30N 28°09' W 015°25'0 0.1
2017-Nov-10 08:01N 28°09' W 015°25'2 3.7
2017-Nov-10 07:30N 28°07' W 015°24'1 1.6
2017-Nov-10 07:00N 28°07' W 015°23'3 5.8
2017-Nov-10 06:31N 28°08' W 015°20'1 2.0
2017-Nov-10 06:00N 28°08' W 015°18'1 2.2
2017-Nov-10 05:30N 28°07' W 015°19'1 2.8
2017-Nov-10 05:00N 28°08' W 015°18'1 2.9
2017-Nov-10 04:30N 28°07' W 015°19'1 2.9
2017-Nov-10 04:00N 28°06' W 015°20'1 2.5
2017-Nov-10 03:30N 28°05' W 015°21'1 1.9
2017-Nov-10 03:00N 28°04' W 015°21'2 5.0
2017-Nov-10 02:30N 28°06' W 015°21'2 4.6
2017-Nov-10 02:00N 28°09' W 015°21'1 2.1
2017-Nov-10 01:30N 28°10' W 015°21'1 2.3
2017-Nov-10 01:00N 28°09' W 015°22'1 2.5
2017-Nov-10 00:30N 28°08' W 015°21'1 2.3
2017-Nov-10 00:01N 28°07' W 015°21'1 2.1
2017-Nov-09 23:31N 28°06' W 015°22'0 1.0
2017-Nov-09 23:01N 28°05' W 015°22'2 4.4
2017-Nov-09 22:30N 28°07' W 015°21'2 4.3
2017-Nov-09 22:01N 28°09' W 015°20'4 7.3
2017-Nov-09 21:30N 28°11' W 015°17'4 7.5
2017-Nov-09 21:00N 28°13' W 015°13'4 7.6
2017-Nov-09 20:30N 28°15' W 015°10'4 7.6
2017-Nov-09 20:00N 28°17' W 015°06'4 7.5
2017-Nov-09 19:30N 28°20' W 015°03'4 7.7
2017-Nov-09 19:00N 28°23' W 014°60'4 8.0
2017-Nov-09 18:30N 28°25' W 014°56'4 8.2
2017-Nov-09 17:59N 28°28' W 014°53'4 8.0
2017-Nov-09 17:30N 28°31' W 014°49'5 8.3
2017-Nov-09 16:50N 28°35' W 014°45'237 7.6
2017-Nov-08 09:42N 31°14' W 011°23'2 8.1
2017-Nov-08 09:29N 31°15' W 011°21'  
2017-Nov-04 16:56N 37°23' W 000°59'3 6.7
2017-Nov-04 16:29N 37°25' W 000°56'3 6.7
2017-Nov-04 15:59N 37°26' W 000°52'3 6.3
2017-Nov-04 15:29N 37°28' W 000°49'3 6.1
2017-Nov-04 15:00N 37°29' W 000°46'3 5.9
2017-Nov-04 14:30N 37°30' W 000°42'3 5.8
2017-Nov-04 13:54N 37°32' W 000°38'2 5.6
2017-Nov-04 13:30N 37°33' W 000°36'3 5.5
2017-Nov-04 13:00N 37°34' W 000°33'3 5.7
2017-Nov-04 12:30N 37°36' W 000°30'3 6.5
2017-Nov-04 11:59N 37°38' W 000°26'3 7.0
2017-Nov-04 11:30N 37°39' W 000°22'4 7.4
2017-Nov-04 10:59N 37°41' W 000°18'175 8.0
2017-Nov-03 13:00N 39°04' E 002°58'  
Track history (hours):
 
Tides and Currents Weather Stations Pressure Air Temp Water Temp Dewpoint Dewpoint Depression Visibility Wind Speed Wind Dir Waves Ship Positions

Denizhan Trio

Last reported at 2017-Nov-10 17:40 UTC. Time now 2017-Nov-24 03:50 UTC.
Position N 27°51' W 015°20'.
Warning: this ship's position is 13 days out of date.

Length 81 m; draft 4.3 m.

Type: Ship. MMSI: 372261000.

Date/timePositionNaut miles runAvg speedWind from/ knotsBaromVisibWave heightAir tempDewpointWater temp
2017-Nov-10 17:40N 27°51' W 015°20'1 7.1
2017-Nov-10 17:29N 27°52' W 015°20'3 7.4
2017-Nov-10 17:00N 27°56' W 015°19'3 6.8
2017-Nov-10 16:31N 27°59' W 015°20'3 6.9
2017-Nov-10 16:00N 28°02' W 015°21'3 6.8
2017-Nov-10 15:30N 28°06' W 015°22'2 4.5
2017-Nov-10 15:01N 28°07' W 015°23'2 3.8
2017-Nov-10 14:31N 28°09' W 015°25'0 0.0
2017-Nov-10 13:57N 28°09' W 015°25'0 0.0
2017-Nov-10 13:15N 28°09' W 015°25'0 0.0
2017-Nov-10 13:00N 28°09' W 015°25'0 0.0
2017-Nov-10 12:30N 28°09' W 015°25'0 0.0
2017-Nov-10 12:00N 28°09' W 015°25'0 0.0
2017-Nov-10 11:30N 28°09' W 015°25'0 0.0
2017-Nov-10 11:00N 28°09' W 015°25'0 0.0
2017-Nov-10 10:15N 28°09' W 015°25'0 0.0
2017-Nov-10 10:00N 28°09' W 015°25'0 0.0
2017-Nov-10 09:30N 28°09' W 015°25'0 0.0
2017-Nov-10 09:00N 28°09' W 015°25'0 0.0
2017-Nov-10 08:30N 28°09' W 015°25'0 0.1
2017-Nov-10 08:01N 28°09' W 015°25'2 3.7
2017-Nov-10 07:30N 28°07' W 015°24'1 1.6
2017-Nov-10 07:00N 28°07' W 015°23'3 5.8
2017-Nov-10 06:31N 28°08' W 015°20'1 2.0
2017-Nov-10 06:00N 28°08' W 015°18'1 2.2
2017-Nov-10 05:30N 28°07' W 015°19'1 2.8
2017-Nov-10 05:00N 28°08' W 015°18'1 2.9
2017-Nov-10 04:30N 28°07' W 015°19'1 2.9
2017-Nov-10 04:00N 28°06' W 015°20'1 2.5
2017-Nov-10 03:30N 28°05' W 015°21'1 1.9
2017-Nov-10 03:00N 28°04' W 015°21'2 5.0
2017-Nov-10 02:30N 28°06' W 015°21'2 4.6
2017-Nov-10 02:00N 28°09' W 015°21'1 2.1
2017-Nov-10 01:30N 28°10' W 015°21'1 2.3
2017-Nov-10 01:00N 28°09' W 015°22'1 2.5
2017-Nov-10 00:30N 28°08' W 015°21'1 2.3
2017-Nov-10 00:01N 28°07' W 015°21'1 2.1
2017-Nov-09 23:31N 28°06' W 015°22'0 1.0
2017-Nov-09 23:01N 28°05' W 015°22'2 4.4
2017-Nov-09 22:30N 28°07' W 015°21'2 4.3
2017-Nov-09 22:01N 28°09' W 015°20'4 7.3
2017-Nov-09 21:30N 28°11' W 015°17'4 7.5
2017-Nov-09 21:00N 28°13' W 015°13'4 7.6
2017-Nov-09 20:30N 28°15' W 015°10'4 7.6
2017-Nov-09 20:00N 28°17' W 015°06'4 7.5
2017-Nov-09 19:30N 28°20' W 015°03'4 7.7
2017-Nov-09 19:00N 28°23' W 014°60'4 8.0
2017-Nov-09 18:30N 28°25' W 014°56'4 8.2
2017-Nov-09 17:59N 28°28' W 014°53'4 8.0
2017-Nov-09 17:30N 28°31' W 014°49'5 8.3
2017-Nov-09 16:50N 28°35' W 014°45'237 7.6
2017-Nov-08 09:42N 31°14' W 011°23'2 8.1
2017-Nov-08 09:29N 31°15' W 011°21'  
2017-Nov-04 16:56N 37°23' W 000°59'3 6.7
2017-Nov-04 16:29N 37°25' W 000°56'3 6.7
2017-Nov-04 15:59N 37°26' W 000°52'3 6.3
2017-Nov-04 15:29N 37°28' W 000°49'3 6.1
2017-Nov-04 15:00N 37°29' W 000°46'3 5.9
2017-Nov-04 14:30N 37°30' W 000°42'3 5.8
2017-Nov-04 13:54N 37°32' W 000°38'2 5.6
2017-Nov-04 13:30N 37°33' W 000°36'3 5.5
2017-Nov-04 13:00N 37°34' W 000°33'3 5.7
2017-Nov-04 12:30N 37°36' W 000°30'3 6.5
2017-Nov-04 11:59N 37°38' W 000°26'3 7.0
2017-Nov-04 11:30N 37°39' W 000°22'4 7.4
2017-Nov-04 10:59N 37°41' W 000°18'175 8.0
2017-Nov-03 13:00N 39°04' E 002°58'  

Dump ship's entire track history